Flight Briefing for CPX818

Departure Arrival
Ramstein Air Force Base (ETAR)
Click to view FAA NOTAMS
RAF Mildenhall (EGUN)
Click to view FAA NOTAMS
Departure Time Arrival Time
N/A N/A
Aircraft Distance
B767-300BDSF 322nm
Departure METAR Arrival METAR
ETAR 192156Z AUTO 00000KT 9999 CLR M02/M02 A3019 RMK AO2 SLP238 T10231023 $ EGUN 192156Z AUTO M 9999 FEW050 FEW100 BKN120 OVC140 07/07 A3004 RMK AO2 SLP176 T00740074 $
Suggested Route





View recent IFR Routes data
Notes
USTRANSCOM CONTRACT FLIGHT

Charts and Procedures

Charts for ETAR
No chart available
Charts for EGUN
No chart available

Ventusky Weather




{"cat":null,"equip":null,"transponder":null,"pbn":"PBN\/","maxpax":null,"oew":"0.0","mzfw":"0.0","mtow":"0.0","mlw":"0.0","maxfuel":"0.0"} DEVELOPMENTAL TEST USE ONLY